createdAt,value
2023-05-23T00:00:52.066Z,15.50
2023-05-23T00:03:22.848Z,15.50
2023-05-23T00:05:50.308Z,15.50
2023-05-23T00:08:17.483Z,15.50
2023-05-23T00:10:45.089Z,15.50
2023-05-23T00:13:15.185Z,15.50
2023-05-23T00:15:42.435Z,15.50
2023-05-23T00:18:12.440Z,15.50
2023-05-23T00:20:43.499Z,15.50
2023-05-23T00:23:11.008Z,15.50
2023-05-23T00:25:38.201Z,15.40
2023-05-23T00:28:05.684Z,15.40
2023-05-23T00:30:33.864Z,15.40
2023-05-23T00:33:00.920Z,15.40
2023-05-23T00:35:27.921Z,15.40
2023-05-23T00:37:55.590Z,15.30
2023-05-23T00:40:23.192Z,15.20
2023-05-23T00:42:49.975Z,15.20
2023-05-23T00:45:19.842Z,15.20
2023-05-23T00:47:47.274Z,15.10
2023-05-23T00:50:15.789Z,15.10
2023-05-23T00:52:43.606Z,15.00
2023-05-23T00:55:10.531Z,15.00
2023-05-23T00:57:41.005Z,15.00
2023-05-23T01:00:15.360Z,15.00
2023-05-23T01:02:45.453Z,15.00
2023-05-23T01:05:17.483Z,14.90
2023-05-23T01:07:48.448Z,14.90
2023-05-23T01:10:18.077Z,14.90
2023-05-23T01:13:02.721Z,14.90
2023-05-23T01:15:36.813Z,14.90
2023-05-23T01:18:24.806Z,14.80
2023-05-23T01:20:56.471Z,14.80
2023-05-23T01:23:32.232Z,14.90
2023-05-23T01:26:08.619Z,14.80
2023-05-23T01:28:41.834Z,14.80
2023-05-23T01:31:11.074Z,14.80
2023-05-23T01:33:38.658Z,14.70
2023-05-23T01:36:05.805Z,14.70
2023-05-23T01:38:32.602Z,14.70
2023-05-23T01:40:59.398Z,14.70
2023-05-23T01:43:26.179Z,14.70
2023-05-23T01:45:54.605Z,14.60
2023-05-23T01:48:21.692Z,14.70
2023-05-23T01:50:48.739Z,14.70
2023-05-23T01:53:16.641Z,14.60
2023-05-23T01:55:43.396Z,14.60
2023-05-23T01:58:10.221Z,14.50
2023-05-23T02:00:36.953Z,14.50
2023-05-23T02:03:04.301Z,14.40
2023-05-23T02:05:31.152Z,14.40
2023-05-23T02:07:57.909Z,14.30
2023-05-23T02:10:24.745Z,14.40
2023-05-23T02:12:51.515Z,14.40
2023-05-23T02:15:18.262Z,14.40
2023-05-23T02:17:45.155Z,14.40
2023-05-23T02:20:11.976Z,14.30
2023-05-23T02:22:38.821Z,14.30
2023-05-23T02:25:06.314Z,14.30
2023-05-23T02:27:33.087Z,14.30
2023-05-23T02:29:59.849Z,14.30
2023-05-23T02:32:26.639Z,14.30
2023-05-23T02:34:55.075Z,14.30
2023-05-23T02:37:23.132Z,14.30
2023-05-23T02:39:50.024Z,14.30
2023-05-23T02:42:16.972Z,14.30
2023-05-23T02:44:44.061Z,14.20
2023-05-23T02:47:10.871Z,14.30
2023-05-23T02:49:37.601Z,14.30
2023-05-23T02:52:04.596Z,14.30
2023-05-23T02:54:31.384Z,14.30
2023-05-23T02:56:58.498Z,14.30
2023-05-23T02:59:26.775Z,14.20
2023-05-23T03:01:54.052Z,14.20
2023-05-23T03:04:21.408Z,14.20
2023-05-23T03:06:48.367Z,14.20
2023-05-23T03:09:17.036Z,14.20
2023-05-23T03:11:43.865Z,14.20
2023-05-23T03:14:10.640Z,14.20
2023-05-23T03:16:37.558Z,14.20
2023-05-23T03:19:04.760Z,14.20
2023-05-23T03:21:32.636Z,14.20
2023-05-23T03:23:59.407Z,14.20
2023-05-23T03:26:26.191Z,14.20
2023-05-23T03:28:52.986Z,14.20
2023-05-23T03:31:19.810Z,14.20
2023-05-23T03:33:46.641Z,14.20
2023-05-23T03:36:13.378Z,14.20
2023-05-23T03:38:40.352Z,14.20
2023-05-23T03:41:07.255Z,14.10
2023-05-23T03:43:34.029Z,14.20
2023-05-23T03:46:00.843Z,14.10
2023-05-23T03:48:27.732Z,14.10
2023-05-23T03:50:54.504Z,14.10
2023-05-23T03:53:21.472Z,14.10
2023-05-23T03:55:48.238Z,14.10
2023-05-23T03:58:15.115Z,14.10
2023-05-23T04:00:41.976Z,14.10
2023-05-23T04:03:10.227Z,14.10
2023-05-23T04:05:37.095Z,14.10
2023-05-23T04:08:03.975Z,14.10
2023-05-23T04:10:30.761Z,14.00
2023-05-23T04:12:58.791Z,14.00
2023-05-23T04:15:25.846Z,14.00
2023-05-23T04:17:52.778Z,14.00
2023-05-23T04:20:19.723Z,14.00
2023-05-23T04:22:46.532Z,14.00
2023-05-23T04:25:13.834Z,13.90
2023-05-23T04:27:40.733Z,13.90
2023-05-23T04:30:10.083Z,13.90
2023-05-23T04:32:37.900Z,13.90
2023-05-23T04:35:04.870Z,13.90
2023-05-23T04:37:33.073Z,13.80
2023-05-23T04:39:59.945Z,13.80
2023-05-23T04:42:27.417Z,13.90
2023-05-23T04:44:56.831Z,13.80
2023-05-23T04:47:24.977Z,13.80
2023-05-23T04:49:53.927Z,13.80
2023-05-23T04:52:21.362Z,13.80
2023-05-23T04:54:48.807Z,13.80
2023-05-23T04:57:15.784Z,13.80
2023-05-23T04:59:43.134Z,13.70
2023-05-23T05:02:09.993Z,13.80
2023-05-23T05:04:36.748Z,13.70
2023-05-23T05:07:03.825Z,13.70
2023-05-23T05:09:31.461Z,13.70
2023-05-23T05:11:59.259Z,13.60
2023-05-23T05:14:27.152Z,13.60
2023-05-23T05:16:57.771Z,13.60
2023-05-23T05:19:24.749Z,13.60
2023-05-23T05:21:52.553Z,13.60
2023-05-23T05:24:21.089Z,13.60
2023-05-23T05:26:49.260Z,13.50
2023-05-23T05:29:16.342Z,13.50
2023-05-23T05:31:45.197Z,13.50
2023-05-23T05:34:12.689Z,13.50
2023-05-23T05:36:45.858Z,13.50
2023-05-23T05:39:13.856Z,13.40
2023-05-23T05:41:40.899Z,13.50
2023-05-23T05:44:08.674Z,13.50
2023-05-23T05:46:35.551Z,13.60
2023-05-23T05:49:02.440Z,13.50
2023-05-23T05:51:29.509Z,13.50
2023-05-23T05:53:56.306Z,13.60
2023-05-23T05:56:23.181Z,13.60
2023-05-23T05:58:49.980Z,13.60
2023-05-23T06:01:17.582Z,13.60
2023-05-23T06:03:44.724Z,13.60
2023-05-23T06:06:11.967Z,13.60
2023-05-23T06:08:38.737Z,13.60
2023-05-23T06:11:05.728Z,13.60
2023-05-23T06:13:32.482Z,13.60
2023-05-23T06:15:59.374Z,13.60
2023-05-23T06:18:26.411Z,13.60
2023-05-23T06:20:53.224Z,13.50
2023-05-23T06:23:20.035Z,13.50
2023-05-23T06:25:46.826Z,13.50
2023-05-23T06:28:13.621Z,13.50
2023-05-23T06:30:40.593Z,13.60
2023-05-23T06:33:07.619Z,13.60
2023-05-23T06:35:34.427Z,13.60
2023-05-23T06:38:01.191Z,13.60
2023-05-23T06:40:27.951Z,13.60
2023-05-23T06:42:54.687Z,13.60
2023-05-23T06:45:21.469Z,13.60
2023-05-23T06:47:49.284Z,13.60
2023-05-23T06:50:19.748Z,13.60
2023-05-23T06:52:50.207Z,13.70
2023-05-23T06:55:19.393Z,13.70
2023-05-23T06:57:47.235Z,13.80
2023-05-23T07:00:14.934Z,13.80
2023-05-23T07:02:41.822Z,13.80
2023-05-23T07:05:09.209Z,13.80
2023-05-23T07:07:36.024Z,13.90
2023-05-23T07:10:03.108Z,13.80
2023-05-23T07:12:29.883Z,13.80
2023-05-23T07:14:56.791Z,13.80
2023-05-23T07:17:23.625Z,13.80
2023-05-23T07:19:50.426Z,13.80
2023-05-23T07:22:17.212Z,13.80
2023-05-23T07:24:44.011Z,13.70
2023-05-23T07:27:10.837Z,13.70
2023-05-23T07:29:37.608Z,13.80
2023-05-23T07:32:04.880Z,13.70
2023-05-23T07:34:31.685Z,13.70
2023-05-23T07:36:58.447Z,13.70
2023-05-23T07:39:25.936Z,13.80
2023-05-23T07:41:52.735Z,13.80
2023-05-23T07:44:21.690Z,13.80
2023-05-23T07:46:50.620Z,13.80
2023-05-23T07:49:17.539Z,13.80
2023-05-23T07:51:44.287Z,13.70
2023-05-23T07:54:11.283Z,13.80
2023-05-23T07:56:38.740Z,13.80
2023-05-23T07:59:05.608Z,13.80
2023-05-23T08:01:32.457Z,13.90
2023-05-23T08:03:59.256Z,13.90
2023-05-23T08:06:26.052Z,13.80
2023-05-23T08:08:53.205Z,13.80
2023-05-23T08:11:19.977Z,13.80
2023-05-23T08:13:46.793Z,13.80
2023-05-23T08:16:13.660Z,13.80
2023-05-23T08:18:40.537Z,13.80
2023-05-23T08:21:07.387Z,13.80
2023-05-23T08:23:34.323Z,13.80
2023-05-23T08:26:01.198Z,13.80
2023-05-23T08:28:28.031Z,13.90
2023-05-23T08:30:57.190Z,13.90
2023-05-23T08:33:23.987Z,13.90
2023-05-23T08:35:50.960Z,13.90
2023-05-23T08:38:18.413Z,13.90
2023-05-23T08:40:50.746Z,13.90
2023-05-23T08:43:18.056Z,14.00
2023-05-23T08:45:46.132Z,14.00
2023-05-23T08:48:15.194Z,14.00
2023-05-23T08:50:43.721Z,14.10
2023-05-23T08:53:10.721Z,14.10
2023-05-23T08:55:38.076Z,14.10
2023-05-23T08:58:05.664Z,14.10
2023-05-23T09:00:33.446Z,14.20
2023-05-23T09:03:00.700Z,14.30
2023-05-23T09:05:27.605Z,14.40
2023-05-23T09:07:55.041Z,14.40
2023-05-23T09:10:22.125Z,14.40
2023-05-23T09:12:49.599Z,14.50
2023-05-23T09:15:17.182Z,14.50
2023-05-23T09:17:45.007Z,14.60
2023-05-23T09:20:14.587Z,14.60
2023-05-23T09:22:43.527Z,14.60
2023-05-23T09:25:10.390Z,14.70
2023-05-23T09:27:37.309Z,14.80
2023-05-23T09:30:08.337Z,14.80
2023-05-23T09:32:35.852Z,14.80
2023-05-23T09:35:04.745Z,15.00
2023-05-23T09:37:36.136Z,15.20
2023-05-23T09:40:07.326Z,15.50
2023-05-23T09:42:34.614Z,15.70
2023-05-23T09:45:04.044Z,15.70
2023-05-23T09:47:31.819Z,15.60
2023-05-23T09:49:58.873Z,15.70
2023-05-23T09:52:26.138Z,15.60
2023-05-23T09:54:53.870Z,15.70
2023-05-23T09:57:23.385Z,15.70
2023-05-23T09:59:57.126Z,15.70
2023-05-23T10:02:54.066Z,15.70
2023-05-23T10:05:50.253Z,15.80
2023-05-23T10:08:23.665Z,15.90
2023-05-23T10:11:13.421Z,15.80
2023-05-23T10:13:49.402Z,15.80
2023-05-23T10:16:22.924Z,15.90
2023-05-23T10:18:56.458Z,15.90
2023-05-23T10:21:41.006Z,16.00
2023-05-23T10:24:08.199Z,16.10
2023-05-23T10:26:35.211Z,16.20
2023-05-23T10:29:02.239Z,16.20
2023-05-23T10:31:29.788Z,16.50
2023-05-23T10:34:03.262Z,16.60
2023-05-23T10:36:37.675Z,16.60
2023-05-23T10:39:20.380Z,16.50
2023-05-23T10:41:53.954Z,16.50
2023-05-23T10:44:27.713Z,16.50
2023-05-23T10:46:55.665Z,16.60
2023-05-23T10:49:37.721Z,16.70
2023-05-23T10:52:05.059Z,16.90
2023-05-23T10:54:45.600Z,16.80
2023-05-23T10:57:16.867Z,16.80
2023-05-23T10:59:45.611Z,16.90
2023-05-23T11:02:18.587Z,17.10
2023-05-23T11:04:45.759Z,17.30
2023-05-23T11:07:29.818Z,17.30
2023-05-23T11:10:14.756Z,17.30
2023-05-23T11:12:43.346Z,17.30
2023-05-23T11:15:20.699Z,17.30
2023-05-23T11:17:52.505Z,17.30
2023-05-23T11:20:24.533Z,17.30
2023-05-23T11:23:00.083Z,17.50
2023-05-23T11:25:53.809Z,17.40
2023-05-23T11:28:21.048Z,17.40
2023-05-23T11:30:48.603Z,17.50
2023-05-23T11:33:17.109Z,17.50
2023-05-23T11:35:45.964Z,17.60
2023-05-23T11:38:14.615Z,17.70
2023-05-23T11:40:43.222Z,17.70
2023-05-23T11:43:19.797Z,17.80
2023-05-23T11:45:46.877Z,17.80
2023-05-23T11:48:16.434Z,17.80
2023-05-23T11:50:53.947Z,18.00
2023-05-23T11:53:25.352Z,17.90
2023-05-23T11:55:55.284Z,18.10
2023-05-23T11:58:23.004Z,18.30
2023-05-23T12:00:49.866Z,18.40
2023-05-23T12:03:16.908Z,18.50
2023-05-23T12:05:45.564Z,18.40
2023-05-23T12:08:14.149Z,18.40
2023-05-23T12:10:54.400Z,18.40
2023-05-23T12:13:24.581Z,18.60
2023-05-23T12:15:58.984Z,18.60
2023-05-23T12:18:29.792Z,18.70
2023-05-23T12:21:03.396Z,18.80
2023-05-23T12:23:31.781Z,18.90
2023-05-23T12:25:59.976Z,18.90
2023-05-23T12:28:45.728Z,18.90
2023-05-23T12:31:13.494Z,18.90
2023-05-23T12:33:44.653Z,18.80
2023-05-23T12:36:15.422Z,18.90
2023-05-23T12:38:45.634Z,19.10
2023-05-23T12:41:16.530Z,19.10
2023-05-23T12:43:51.626Z,19.10
2023-05-23T12:46:19.169Z,19.00
2023-05-23T12:48:46.007Z,19.20
2023-05-23T12:51:13.270Z,19.50
2023-05-23T12:53:40.197Z,19.50
2023-05-23T12:56:07.013Z,19.60
2023-05-23T12:58:34.380Z,19.70
2023-05-23T13:01:02.548Z,19.70
2023-05-23T13:03:33.070Z,19.70
2023-05-23T13:06:00.045Z,20.00
2023-05-23T13:08:27.606Z,20.00
2023-05-23T13:10:54.457Z,20.00
2023-05-23T13:13:21.288Z,20.20
2023-05-23T13:15:50.605Z,20.30
2023-05-23T13:18:18.238Z,20.40
2023-05-23T13:20:45.368Z,20.40
2023-05-23T13:23:12.169Z,20.40
2023-05-23T13:25:39.283Z,20.60
2023-05-23T13:28:06.641Z,20.80
2023-05-23T13:30:34.108Z,20.70
2023-05-23T13:33:00.963Z,20.90
2023-05-23T13:35:27.918Z,21.10
2023-05-23T13:37:54.707Z,21.20
2023-05-23T13:40:22.032Z,21.20
2023-05-23T13:42:53.490Z,21.20
2023-05-23T13:45:22.501Z,21.40
2023-05-23T13:47:49.618Z,21.30
2023-05-23T13:50:16.822Z,21.50
2023-05-23T13:52:45.738Z,21.60
2023-05-23T13:55:14.340Z,21.70
2023-05-23T13:57:41.203Z,21.80
2023-05-23T14:00:08.971Z,21.70
2023-05-23T14:02:35.980Z,21.70
2023-05-23T14:05:03.178Z,21.80
2023-05-23T14:07:29.969Z,22.00
2023-05-23T14:09:57.584Z,22.00
2023-05-23T14:12:24.473Z,22.10
2023-05-23T14:14:51.326Z,22.30
2023-05-23T14:17:18.512Z,22.30
2023-05-23T14:19:46.240Z,22.40
2023-05-23T14:22:13.125Z,22.50
2023-05-23T14:24:39.962Z,22.70
2023-05-23T14:27:09.427Z,22.80
2023-05-23T14:29:37.832Z,22.90
2023-05-23T14:32:04.921Z,23.10
2023-05-23T14:34:32.051Z,23.20
2023-05-23T14:36:58.924Z,23.20
2023-05-23T14:39:25.954Z,22.90
2023-05-23T14:41:52.818Z,22.90
2023-05-23T14:44:19.708Z,22.70
2023-05-23T14:46:50.207Z,23.00
2023-05-23T14:49:17.547Z,23.20
2023-05-23T14:51:50.311Z,23.30
2023-05-23T14:54:18.909Z,23.50
2023-05-23T14:56:46.110Z,23.40
2023-05-23T14:59:13.166Z,23.40
2023-05-23T15:01:40.894Z,23.30
2023-05-23T15:04:09.594Z,23.20
2023-05-23T15:06:38.360Z,23.30
2023-05-23T15:09:05.610Z,23.50
2023-05-23T15:11:34.808Z,23.30
2023-05-23T15:14:01.710Z,23.60
2023-05-23T15:16:32.665Z,23.80
2023-05-23T15:18:59.824Z,24.20
2023-05-23T15:21:26.959Z,24.20
2023-05-23T15:23:54.227Z,24.30
2023-05-23T15:26:21.170Z,24.30
2023-05-23T15:28:48.040Z,24.40
2023-05-23T15:31:14.856Z,24.40
2023-05-23T15:33:41.736Z,24.50
2023-05-23T15:36:08.706Z,24.30
2023-05-23T15:38:35.638Z,24.20
2023-05-23T15:41:03.310Z,23.90
2023-05-23T15:43:30.129Z,24.10
2023-05-23T15:45:56.954Z,24.20
2023-05-23T15:48:23.821Z,24.20
2023-05-23T15:50:50.713Z,24.20
2023-05-23T15:53:17.502Z,24.30
2023-05-23T15:55:44.284Z,24.50
2023-05-23T15:58:11.318Z,24.60
2023-05-23T16:00:38.142Z,24.50
2023-05-23T16:03:05.054Z,24.40
2023-05-23T16:05:31.959Z,24.00
2023-05-23T16:07:59.254Z,24.40
2023-05-23T16:10:26.262Z,24.50
2023-05-23T16:12:53.156Z,24.40
2023-05-23T16:15:20.088Z,24.60
2023-05-23T16:17:46.909Z,24.40
2023-05-23T16:20:14.705Z,24.60
2023-05-23T16:22:41.820Z,24.70
2023-05-23T16:25:10.531Z,24.60
2023-05-23T16:27:37.484Z,24.30
2023-05-23T16:30:06.181Z,24.10
2023-05-23T16:32:33.957Z,24.20
2023-05-23T16:35:00.917Z,24.20
2023-05-23T16:37:27.715Z,24.50
2023-05-23T16:39:54.540Z,24.70
2023-05-23T16:42:22.366Z,24.90
2023-05-23T16:44:49.324Z,24.70
2023-05-23T16:47:16.848Z,24.50
2023-05-23T16:49:43.708Z,24.40
2023-05-23T16:52:11.160Z,24.40
2023-05-23T16:54:38.088Z,24.50
2023-05-23T16:57:05.689Z,24.70
2023-05-23T16:59:32.685Z,24.70
2023-05-23T17:01:59.701Z,24.40
2023-05-23T17:04:26.530Z,23.70
2023-05-23T17:06:53.534Z,23.80
2023-05-23T17:09:22.203Z,23.70
2023-05-23T17:11:49.682Z,24.00
2023-05-23T17:14:16.496Z,23.90
2023-05-23T17:16:43.386Z,23.40
2023-05-23T17:19:10.522Z,23.10
2023-05-23T17:21:37.616Z,23.10
2023-05-23T17:24:04.629Z,23.10
2023-05-23T17:26:31.764Z,22.60
2023-05-23T17:28:58.568Z,22.60
2023-05-23T17:31:29.663Z,22.60
2023-05-23T17:33:57.601Z,22.20
2023-05-23T17:36:24.395Z,22.50
2023-05-23T17:38:53.730Z,22.50
2023-05-23T17:41:23.156Z,22.50
2023-05-23T17:43:50.270Z,22.70
2023-05-23T17:46:17.143Z,22.50
2023-05-23T17:48:47.811Z,22.30
2023-05-23T17:51:15.693Z,22.10
2023-05-23T17:53:42.789Z,21.90
2023-05-23T17:56:09.645Z,22.10
2023-05-23T17:58:37.524Z,22.00
2023-05-23T18:01:05.177Z,22.20
2023-05-23T18:03:32.377Z,21.80
2023-05-23T18:05:59.368Z,21.90
2023-05-23T18:08:26.208Z,21.80
2023-05-23T18:10:53.028Z,21.60
2023-05-23T18:13:19.784Z,21.20
2023-05-23T18:15:46.647Z,21.50
2023-05-23T18:18:13.595Z,21.70
2023-05-23T18:20:40.981Z,21.50
2023-05-23T18:23:08.456Z,21.40
2023-05-23T18:25:35.277Z,21.30
2023-05-23T18:28:02.582Z,21.20
2023-05-23T18:30:29.556Z,21.20
2023-05-23T18:32:56.930Z,21.00
2023-05-23T18:35:25.682Z,20.80
2023-05-23T18:37:53.618Z,20.80
2023-05-23T18:40:21.799Z,20.80
2023-05-23T18:42:50.228Z,20.30
2023-05-23T18:45:17.353Z,20.20
2023-05-23T18:47:44.776Z,20.20
2023-05-23T18:50:13.012Z,19.90
2023-05-23T18:52:40.172Z,19.80
2023-05-23T18:55:07.704Z,19.80
2023-05-23T18:57:34.669Z,19.60
2023-05-23T19:00:20.412Z,19.60
2023-05-23T19:03:06.020Z,19.50
2023-05-23T19:05:51.669Z,19.60
2023-05-23T19:08:18.589Z,19.70
2023-05-23T19:10:45.429Z,19.60
2023-05-23T19:13:13.939Z,19.50
2023-05-23T19:15:40.909Z,19.40
2023-05-23T19:18:07.920Z,19.30
2023-05-23T19:20:34.904Z,19.40
2023-05-23T19:23:01.769Z,19.20
2023-05-23T19:25:28.704Z,19.20
2023-05-23T19:27:55.613Z,18.90
2023-05-23T19:30:22.770Z,18.60
2023-05-23T19:32:50.452Z,18.40
2023-05-23T19:35:17.661Z,18.20
2023-05-23T19:37:45.209Z,18.30
2023-05-23T19:40:12.643Z,18.50
2023-05-23T19:42:39.514Z,18.40
2023-05-23T19:45:07.689Z,18.30
2023-05-23T19:47:34.619Z,18.30
2023-05-23T19:50:01.502Z,18.30
2023-05-23T19:52:28.335Z,18.20
2023-05-23T19:54:55.242Z,18.40
2023-05-23T19:57:22.423Z,18.30
2023-05-23T19:59:49.232Z,18.00
2023-05-23T20:02:16.176Z,17.80
2023-05-23T20:04:43.076Z,17.70
2023-05-23T20:07:10.659Z,17.70
2023-05-23T20:09:37.502Z,17.60
2023-05-23T20:12:04.694Z,17.50
2023-05-23T20:14:32.057Z,17.40
2023-05-23T20:16:58.940Z,17.30
2023-05-23T20:19:26.270Z,17.10
2023-05-23T20:21:53.140Z,17.20
2023-05-23T20:24:20.039Z,17.30
2023-05-23T20:26:46.953Z,17.30
2023-05-23T20:29:13.729Z,17.20
2023-05-23T20:31:40.856Z,17.00
2023-05-23T20:34:07.880Z,17.00
2023-05-23T20:36:35.071Z,17.10
2023-05-23T20:39:02.161Z,17.00
2023-05-23T20:41:29.623Z,16.70
2023-05-23T20:43:56.640Z,16.90
2023-05-23T20:46:23.508Z,16.90
2023-05-23T20:48:50.720Z,16.80
2023-05-23T20:51:17.731Z,16.70
2023-05-23T20:53:44.543Z,16.40
2023-05-23T20:56:11.435Z,16.30
2023-05-23T20:58:38.357Z,16.40
2023-05-23T21:01:05.252Z,16.40
2023-05-23T21:03:32.286Z,16.30
2023-05-23T21:05:59.185Z,16.30
2023-05-23T21:08:26.148Z,16.20
2023-05-23T21:10:54.740Z,16.00
2023-05-23T21:13:21.975Z,16.10
2023-05-23T21:15:48.884Z,16.10
2023-05-23T21:18:15.808Z,15.90
2023-05-23T21:20:42.797Z,15.80
2023-05-23T21:23:09.883Z,15.80
2023-05-23T21:25:36.772Z,15.80
2023-05-23T21:28:03.578Z,15.70
2023-05-23T21:30:30.543Z,15.70
2023-05-23T21:32:57.535Z,15.70
2023-05-23T21:35:24.369Z,15.50
2023-05-23T21:37:51.117Z,15.50
2023-05-23T21:40:18.112Z,15.60
2023-05-23T21:42:44.909Z,15.60
2023-05-23T21:45:11.792Z,15.60
2023-05-23T21:47:38.720Z,15.40
2023-05-23T21:50:06.088Z,15.40
2023-05-23T21:52:32.852Z,15.40
2023-05-23T21:54:59.664Z,15.30
2023-05-23T21:57:26.816Z,15.30
2023-05-23T21:59:53.640Z,15.20
2023-05-23T22:02:20.568Z,15.00
2023-05-23T22:04:47.387Z,15.00
2023-05-23T22:07:14.227Z,15.00
2023-05-23T22:09:41.053Z,14.90
2023-05-23T22:12:08.217Z,14.90
2023-05-23T22:14:35.024Z,14.90
2023-05-23T22:17:02.323Z,14.80
2023-05-23T22:19:30.025Z,14.80
2023-05-23T22:21:57.071Z,14.60
2023-05-23T22:24:23.967Z,14.60
2023-05-23T22:26:50.835Z,14.60
2023-05-23T22:29:17.602Z,14.60
2023-05-23T22:31:44.543Z,14.50
2023-05-23T22:34:11.524Z,14.50
2023-05-23T22:36:39.044Z,14.40
2023-05-23T22:39:06.102Z,14.30
2023-05-23T22:41:33.232Z,14.30
2023-05-23T22:44:00.091Z,14.20
2023-05-23T22:46:27.047Z,14.10
2023-05-23T22:48:55.230Z,14.10
2023-05-23T22:51:22.314Z,14.10
2023-05-23T22:53:49.203Z,14.00
2023-05-23T22:56:16.605Z,13.90
2023-05-23T22:58:43.455Z,13.90
2023-05-23T23:01:12.276Z,13.90
2023-05-23T23:03:39.067Z,13.70
2023-05-23T23:06:06.387Z,13.70
2023-05-23T23:08:33.447Z,13.70
2023-05-23T23:11:00.238Z,13.60
2023-05-23T23:13:27.075Z,13.50
2023-05-23T23:15:54.440Z,13.40
2023-05-23T23:18:21.255Z,13.20
2023-05-23T23:20:48.396Z,13.10
2023-05-23T23:23:15.299Z,13.10
2023-05-23T23:25:42.125Z,13.10
2023-05-23T23:28:08.900Z,13.10
2023-05-23T23:30:35.777Z,13.00
2023-05-23T23:33:02.636Z,12.80
2023-05-23T23:35:29.435Z,12.90
2023-05-23T23:37:56.182Z,13.00
2023-05-23T23:40:22.947Z,13.00
2023-05-23T23:42:49.769Z,12.90
2023-05-23T23:45:16.589Z,12.90
2023-05-23T23:47:43.575Z,12.70
2023-05-23T23:50:10.506Z,12.60
2023-05-23T23:52:37.362Z,12.60
2023-05-23T23:55:04.742Z,12.60
2023-05-23T23:57:31.515Z,12.60
2023-05-23T23:59:58.399Z,12.60
